Theologos P . — SZNB — position and weather

sailwx.info

Track history (hours):
 
Tides and Currents Weather Stations Pressure Air Temp Water Temp Dewpoint Dewpoint Depression Visibility Wind Speed Wind Dir Waves Ship Positions

Theologos P .

Last reported at 2016-Jul-25 21:34 UTC. Time now 2016-Jul-25 22:02 UTC.
Position N 37°28' E 025°20'.

Length 118 m; draft 4.5 m.

Type: Passenger vessel. MMSI: 240521000.

Date/timePositionNaut miles runAvg speedWind from/ knotsBaromVisibWave heightAir tempDewpointWater temp
2016-Jul-25 21:34N 37°28' E 025°20'0 0.0
2016-Jul-25 20:34N 37°28' E 025°20'0 0.0
2016-Jul-25 19:33N 37°28' E 025°20'9 9.3
2016-Jul-25 18:33N 37°32' E 025°09'1514.8
2016-Jul-25 17:34N 37°42' E 024°55'3515.1
2016-Jul-25 15:16N 37°57' E 024°16'13 2.1
2016-Jul-25 09:21N 38°01' E 024°01'1417.8
2016-Jul-25 08:33N 37°57' E 024°18'3314.4
2016-Jul-25 06:16N 37°41' E 024°55'1318.7
2016-Jul-25 05:34N 37°33' E 025°07'1111.3
2016-Jul-25 04:34N 37°28' E 025°20'0 0.0
2016-Jul-25 03:33N 37°28' E 025°20'0 0.0
2016-Jul-25 02:34N 37°28' E 025°20'0 0.0
2016-Jul-25 01:33N 37°28' E 025°20'0 0.0
2016-Jul-25 00:34N 37°28' E 025°20'4 4.3
2016-Jul-24 23:33N 37°29' E 025°15'1514.5
2016-Jul-24 22:34N 37°36' E 024°58'1918.7
2016-Jul-24 21:34N 37°44' E 024°37'1919.1
2016-Jul-24 20:33N 37°54' E 024°17'1414.1
2016-Jul-24 19:32N 38°01' E 024°01'8 8.5
2016-Jul-24 18:34N 37°59' E 024°11'1919.4
2016-Jul-24 17:33N 37°53' E 024°34'14 6.0
2016-Jul-24 15:16N 37°57' E 024°18'1419.2
2016-Jul-24 14:33N 38°01' E 024°01'4 3.9
2016-Jul-24 13:33N 38°00' E 024°06'2019.0
2016-Jul-24 12:29N 37°54' E 024°30'2613.4
2016-Jul-24 10:34N 37°39' E 024°57'1211.9
2016-Jul-24 09:33N 37°32' E 025°09'9 9.2
2016-Jul-24 08:33N 37°28' E 025°20'0 0.0
2016-Jul-24 07:33N 37°28' E 025°20'0 0.0
2016-Jul-24 06:33N 37°28' E 025°20'0 0.0
2016-Jul-24 05:33N 37°28' E 025°20'0 0.0
2016-Jul-24 04:33N 37°28' E 025°20'0 0.0
2016-Jul-24 03:33N 37°28' E 025°20'0 0.0
2016-Jul-24 02:33N 37°28' E 025°20'0 0.0
2016-Jul-24 01:33N 37°28' E 025°20'0 0.0
2016-Jul-24 00:33N 37°28' E 025°20'0 0.0
2016-Jul-23 23:33N 37°28' E 025°20'0 0.0
2016-Jul-23 22:33N 37°28' E 025°20'0 0.0
2016-Jul-23 21:33N 37°28' E 025°20'0 0.0
2016-Jul-23 20:33N 37°28' E 025°20'0 0.0
2016-Jul-23 19:33N 37°28' E 025°20'9 9.3
2016-Jul-23 18:33N 37°32' E 025°09'1514.7
2016-Jul-23 17:34N 37°41' E 024°55'3214.5
2016-Jul-23 15:20N 37°57' E 024°19'13 7.4
2016-Jul-23 13:33N 38°01' E 024°03'1919.0
2016-Jul-23 12:33N 37°55' E 024°26'2814.0
2016-Jul-23 10:33N 37°40' E 024°56'1313.5
2016-Jul-23 09:33N 37°32' E 025°09'9 8.6
2016-Jul-23 08:34N 37°28' E 025°19'1313.3
2016-Jul-23 07:33N 37°34' E 025°04'4916.3
2016-Jul-23 04:34N 37°59' E 024°11'8 7.9
2016-Jul-23 03:31N 38°01' E 024°01'0 0.0
2016-Jul-23 02:34N 38°01' E 024°01'0 0.0
2016-Jul-23 01:34N 38°01' E 024°01'0 0.0
2016-Jul-23 00:33N 38°01' E 024°01'5 5.1
2016-Jul-22 23:33N 37°60' E 024°07'1918.7
2016-Jul-22 22:33N 37°51' E 024°28'2019.7
2016-Jul-22 21:33N 37°40' E 024°48'1919.4
2016-Jul-22 20:33N 37°31' E 025°10'8 8.2
2016-Jul-22 19:33N 37°28' E 025°19'9 9.1
2016-Jul-22 18:33N 37°32' E 025°09'1817.7
2016-Jul-22 17:34N 37°44' E 024°52'3014.0
2016-Jul-22 15:24N 37°57' E 024°18'14 2.4
2016-Jul-22 09:17N 38°01' E 024°01'1217.1
2016-Jul-22 08:33N 37°57' E 024°16'4715.8
2016-Jul-22 05:33N 37°33' E 025°07'1111.2
2016-Jul-22 04:33N 37°28' E 025°20'0 0.0
2016-Jul-22 03:34N 37°28' E 025°20'0 0.0
2016-Jul-22 02:33N 37°28' E 025°20'0 0.0
2016-Jul-22 01:34N 37°28' E 025°20'0 0.0
2016-Jul-22 00:34N 37°28' E 025°20'0 0.0
2016-Jul-21 23:34N 37°28' E 025°20'0 0.0
2016-Jul-21 22:34N 37°28' E 025°20'0 0.0
2016-Jul-21 21:33N 37°28' E 025°20'0 0.0
2016-Jul-21 20:34N 37°28' E 025°20'0 0.0
2016-Jul-21 19:33N 37°28' E 025°20'9 9.3
2016-Jul-21 18:33N 37°32' E 025°09'4714.8
2016-Jul-21 15:22N 37°57' E 024°18'15 2.4
2016-Jul-21 09:18N 38°01' E 024°01'1317.5
2016-Jul-21 08:33N 37°57' E 024°16'3515.1
2016-Jul-21 06:13N 37°41' E 024°56'1218.5
2016-Jul-21 05:34N 37°33' E 025°07'1110.8
2016-Jul-21 04:33N 37°28' E 025°20'0 0.0
2016-Jul-21 03:33N 37°28' E 025°20'0 0.0
2016-Jul-21 02:34N 37°28' E 025°20'0 0.0
2016-Jul-21 01:33N 37°28' E 025°20'0 0.0
2016-Jul-21 00:34N 37°28' E 025°20'0 0.0
2016-Jul-20 23:33N 37°28' E 025°20'0 0.0
2016-Jul-20 22:33N 37°28' E 025°20'0 0.0
2016-Jul-20 21:33N 37°28' E 025°20'0 0.0
2016-Jul-20 20:34N 37°28' E 025°20'0 0.0
2016-Jul-20 19:33N 37°28' E 025°20'9 9.2
2016-Jul-20 18:34N 37°32' E 025°09'4815.3
2016-Jul-20 15:26N 37°57' E 024°18'7 1.2
2016-Jul-20 09:34N 37°59' E 024°10'1919.0
2016-Jul-20 08:33N 37°53' E 024°33'19 9.0
2016-Jul-20 06:25N 37°42' E 024°53'1618.6
2016-Jul-20 05:33N 37°32' E 025°08'1010.1
2016-Jul-20 04:34N 37°28' E 025°20'0 0.0
2016-Jul-20 03:33N 37°28' E 025°20'0 0.0
2016-Jul-20 02:34N 37°28' E 025°20'0 0.0
2016-Jul-20 01:34N 37°28' E 025°20'0 0.0
2016-Jul-20 00:34N 37°28' E 025°20'0 0.0
2016-Jul-19 23:34N 37°28' E 025°20'0 0.0
2016-Jul-19 22:34N 37°28' E 025°20'0 0.0
2016-Jul-19 21:34N 37°28' E 025°20'0 0.0
2016-Jul-19 20:33N 37°28' E 025°20'0 0.0
2016-Jul-19 19:34N 37°28' E 025°20'9 9.3
2016-Jul-19 18:33N 37°32' E 025°09'1716.1
2016-Jul-19 17:29N 37°43' E 024°52'3314.5
2016-Jul-19 15:13N 37°58' E 024°15'1218.0
2016-Jul-19 14:33N 38°01' E 024°01'0 0.0
2016-Jul-19 09:32N 38°01' E 024°01'1919.2
2016-Jul-19 08:33N 37°55' E 024°23'5213.0
2016-Jul-19 04:33N 37°28' E 025°20'0 0.0
2016-Jul-19 03:33N 37°28' E 025°20'0 0.0
2016-Jul-19 02:33N 37°28' E 025°20'0 0.0
2016-Jul-19 01:33N 37°28' E 025°20'0 0.0
2016-Jul-19 00:33N 37°28' E 025°20'0 0.0
2016-Jul-18 23:33N 37°28' E 025°20'0 0.0
2016-Jul-18 22:33N 37°28' E 025°20'0 0.0
2016-Jul-18 21:33N 37°28' E 025°20'0 0.0
2016-Jul-18 20:33N 37°28' E 025°20'0 0.0
2016-Jul-18 19:34N 37°28' E 025°20'9 9.2
2016-Jul-18 18:33N 37°32' E 025°09'1514.9
2016-Jul-18 17:33N 37°42' E 024°55'3414.8
2016-Jul-18 15:14N 37°57' E 024°16'12 2.1
2016-Jul-18 09:34N 38°01' E 024°02'1919.4
2016-Jul-18 08:34N 37°54' E 024°25'2511.3
2016-Jul-18 06:21N 37°43' E 024°53'1518.7
2016-Jul-18 05:34N 37°33' E 025°07'1111.3
2016-Jul-18 04:33N 37°28' E 025°20'0 0.0
2016-Jul-18 03:33N 37°28' E 025°20'0 0.0
2016-Jul-18 02:33N 37°28' E 025°20'0 0.0
2016-Jul-18 01:33N 37°28' E 025°20'0 0.0
2016-Jul-18 00:33N 37°28' E 025°20'2 1.8
2016-Jul-17 23:34N 37°28' E 025°17'1514.9
2016-Jul-17 22:33N 37°35' E 025°01'2019.6
2016-Jul-17 21:33N 37°46' E 024°40'2019.7
2016-Jul-17 20:33N 37°55' E 024°18'1514.7
2016-Jul-17 19:33N 38°01' E 024°01'7 6.6
2016-Jul-17 18:33N 37°60' E 024°09'1919.5
2016-Jul-17 17:33N 37°54' E 024°32'8 6.7
2016-Jul-17 16:18N 37°52' E 024°43'1919.6
2016-Jul-17 15:20N 37°56' E 024°20'1519.3
2016-Jul-17 14:33N 38°01' E 024°02'2 1.5
2016-Jul-17 13:33N 38°01' E 024°04'1919.4
2016-Jul-17 12:34N 37°55' E 024°27'2914.1
2016-Jul-17 10:31N 37°39' E 024°57'1212.4
2016-Jul-17 09:33N 37°32' E 025°09'9 9.2
2016-Jul-17 08:34N 37°28' E 025°20'0 0.0
2016-Jul-17 07:34N 37°28' E 025°20'0 0.0
2016-Jul-17 06:34N 37°28' E 025°20'0 0.0
2016-Jul-17 04:34N 37°28' E 025°20'0 0.0
2016-Jul-17 03:34N 37°28' E 025°20'0 0.0
2016-Jul-17 02:34N 37°28' E 025°20'0 0.0
2016-Jul-17 01:34N 37°28' E 025°20'0 0.0
2016-Jul-17 00:33N 37°28' E 025°20'0 0.0
2016-Jul-16 23:34N 37°28' E 025°20'0 0.0
2016-Jul-16 22:34N 37°28' E 025°20'0 0.0
2016-Jul-16 21:33N 37°28' E 025°20'0 0.0
2016-Jul-16 20:34N 37°28' E 025°20'0 0.0
2016-Jul-16 19:34N 37°28' E 025°20'9 9.2
2016-Jul-16 18:33N 37°32' E 025°09'1414.2
2016-Jul-16 17:33N 37°41' E 024°55'1511.7
2016-Jul-16 16:18N 37°52' E 024°43'1520.0
2016-Jul-16 15:33N 37°55' E 024°24'17 8.7
2016-Jul-16 13:33N 38°01' E 024°04'1919.1
2016-Jul-16 12:33N 37°55' E 024°27'1411.6
2016-Jul-16 11:20N 37°52' E 024°44'1519.5
2016-Jul-16 10:33N 37°40' E 024°56'1414.1
2016-Jul-16 09:34N 37°31' E 025°10'7 6.8
2016-Jul-16 08:33N 37°28' E 025°18'1312.8
2016-Jul-16 07:33N 37°35' E 025°04'4916.3
2016-Jul-16 04:34N 37°59' E 024°10'8 7.2
2016-Jul-16 03:27N 38°01' E 024°01'0 0.0
2016-Jul-16 02:33N 38°01' E 024°01'0 0.0
2016-Jul-16 01:33N 38°01' E 024°01'0 0.0
2016-Jul-16 00:33N 38°01' E 024°01'5 4.9
2016-Jul-15 23:33N 37°60' E 024°06'2019.5
2016-Jul-15 22:33N 37°49' E 024°27'  
Track history (hours):
 
Tides and Currents Weather Stations Pressure Air Temp Water Temp Dewpoint Dewpoint Depression Visibility Wind Speed Wind Dir Waves Ship Positions

Theologos P .

Last reported at 2016-Jul-25 21:34 UTC. Time now 2016-Jul-25 22:02 UTC.
Position N 37°28' E 025°20'.

Length 118 m; draft 4.5 m.

Type: Passenger vessel. MMSI: 240521000.

Date/timePositionNaut miles runAvg speedWind from/ knotsBaromVisibWave heightAir tempDewpointWater temp
2016-Jul-25 21:34N 37°28' E 025°20'0 0.0
2016-Jul-25 20:34N 37°28' E 025°20'0 0.0
2016-Jul-25 19:33N 37°28' E 025°20'9 9.3
2016-Jul-25 18:33N 37°32' E 025°09'1514.8
2016-Jul-25 17:34N 37°42' E 024°55'3515.1
2016-Jul-25 15:16N 37°57' E 024°16'13 2.1
2016-Jul-25 09:21N 38°01' E 024°01'1417.8
2016-Jul-25 08:33N 37°57' E 024°18'3314.4
2016-Jul-25 06:16N 37°41' E 024°55'1318.7
2016-Jul-25 05:34N 37°33' E 025°07'1111.3
2016-Jul-25 04:34N 37°28' E 025°20'0 0.0
2016-Jul-25 03:33N 37°28' E 025°20'0 0.0
2016-Jul-25 02:34N 37°28' E 025°20'0 0.0
2016-Jul-25 01:33N 37°28' E 025°20'0 0.0
2016-Jul-25 00:34N 37°28' E 025°20'4 4.3
2016-Jul-24 23:33N 37°29' E 025°15'1514.5
2016-Jul-24 22:34N 37°36' E 024°58'1918.7
2016-Jul-24 21:34N 37°44' E 024°37'1919.1
2016-Jul-24 20:33N 37°54' E 024°17'1414.1
2016-Jul-24 19:32N 38°01' E 024°01'8 8.5
2016-Jul-24 18:34N 37°59' E 024°11'1919.4
2016-Jul-24 17:33N 37°53' E 024°34'14 6.0
2016-Jul-24 15:16N 37°57' E 024°18'1419.2
2016-Jul-24 14:33N 38°01' E 024°01'4 3.9
2016-Jul-24 13:33N 38°00' E 024°06'2019.0
2016-Jul-24 12:29N 37°54' E 024°30'2613.4
2016-Jul-24 10:34N 37°39' E 024°57'1211.9
2016-Jul-24 09:33N 37°32' E 025°09'9 9.2
2016-Jul-24 08:33N 37°28' E 025°20'0 0.0
2016-Jul-24 07:33N 37°28' E 025°20'0 0.0
2016-Jul-24 06:33N 37°28' E 025°20'0 0.0
2016-Jul-24 05:33N 37°28' E 025°20'0 0.0
2016-Jul-24 04:33N 37°28' E 025°20'0 0.0
2016-Jul-24 03:33N 37°28' E 025°20'0 0.0
2016-Jul-24 02:33N 37°28' E 025°20'0 0.0
2016-Jul-24 01:33N 37°28' E 025°20'0 0.0
2016-Jul-24 00:33N 37°28' E 025°20'0 0.0
2016-Jul-23 23:33N 37°28' E 025°20'0 0.0
2016-Jul-23 22:33N 37°28' E 025°20'0 0.0
2016-Jul-23 21:33N 37°28' E 025°20'0 0.0
2016-Jul-23 20:33N 37°28' E 025°20'0 0.0
2016-Jul-23 19:33N 37°28' E 025°20'9 9.3
2016-Jul-23 18:33N 37°32' E 025°09'1514.7
2016-Jul-23 17:34N 37°41' E 024°55'3214.5
2016-Jul-23 15:20N 37°57' E 024°19'13 7.4
2016-Jul-23 13:33N 38°01' E 024°03'1919.0
2016-Jul-23 12:33N 37°55' E 024°26'2814.0
2016-Jul-23 10:33N 37°40' E 024°56'1313.5
2016-Jul-23 09:33N 37°32' E 025°09'9 8.6
2016-Jul-23 08:34N 37°28' E 025°19'1313.3
2016-Jul-23 07:33N 37°34' E 025°04'4916.3
2016-Jul-23 04:34N 37°59' E 024°11'8 7.9
2016-Jul-23 03:31N 38°01' E 024°01'0 0.0
2016-Jul-23 02:34N 38°01' E 024°01'0 0.0
2016-Jul-23 01:34N 38°01' E 024°01'0 0.0
2016-Jul-23 00:33N 38°01' E 024°01'5 5.1
2016-Jul-22 23:33N 37°60' E 024°07'1918.7
2016-Jul-22 22:33N 37°51' E 024°28'2019.7
2016-Jul-22 21:33N 37°40' E 024°48'1919.4
2016-Jul-22 20:33N 37°31' E 025°10'8 8.2
2016-Jul-22 19:33N 37°28' E 025°19'9 9.1
2016-Jul-22 18:33N 37°32' E 025°09'1817.7
2016-Jul-22 17:34N 37°44' E 024°52'3014.0
2016-Jul-22 15:24N 37°57' E 024°18'14 2.4
2016-Jul-22 09:17N 38°01' E 024°01'1217.1
2016-Jul-22 08:33N 37°57' E 024°16'4715.8
2016-Jul-22 05:33N 37°33' E 025°07'1111.2
2016-Jul-22 04:33N 37°28' E 025°20'0 0.0
2016-Jul-22 03:34N 37°28' E 025°20'0 0.0
2016-Jul-22 02:33N 37°28' E 025°20'0 0.0
2016-Jul-22 01:34N 37°28' E 025°20'0 0.0
2016-Jul-22 00:34N 37°28' E 025°20'0 0.0
2016-Jul-21 23:34N 37°28' E 025°20'0 0.0
2016-Jul-21 22:34N 37°28' E 025°20'0 0.0
2016-Jul-21 21:33N 37°28' E 025°20'0 0.0
2016-Jul-21 20:34N 37°28' E 025°20'0 0.0
2016-Jul-21 19:33N 37°28' E 025°20'9 9.3
2016-Jul-21 18:33N 37°32' E 025°09'4714.8
2016-Jul-21 15:22N 37°57' E 024°18'15 2.4
2016-Jul-21 09:18N 38°01' E 024°01'1317.5
2016-Jul-21 08:33N 37°57' E 024°16'3515.1
2016-Jul-21 06:13N 37°41' E 024°56'1218.5
2016-Jul-21 05:34N 37°33' E 025°07'1110.8
2016-Jul-21 04:33N 37°28' E 025°20'0 0.0
2016-Jul-21 03:33N 37°28' E 025°20'0 0.0
2016-Jul-21 02:34N 37°28' E 025°20'0 0.0
2016-Jul-21 01:33N 37°28' E 025°20'0 0.0
2016-Jul-21 00:34N 37°28' E 025°20'0 0.0
2016-Jul-20 23:33N 37°28' E 025°20'0 0.0
2016-Jul-20 22:33N 37°28' E 025°20'0 0.0
2016-Jul-20 21:33N 37°28' E 025°20'0 0.0
2016-Jul-20 20:34N 37°28' E 025°20'0 0.0
2016-Jul-20 19:33N 37°28' E 025°20'9 9.2
2016-Jul-20 18:34N 37°32' E 025°09'4815.3
2016-Jul-20 15:26N 37°57' E 024°18'7 1.2
2016-Jul-20 09:34N 37°59' E 024°10'1919.0
2016-Jul-20 08:33N 37°53' E 024°33'19 9.0
2016-Jul-20 06:25N 37°42' E 024°53'1618.6
2016-Jul-20 05:33N 37°32' E 025°08'1010.1
2016-Jul-20 04:34N 37°28' E 025°20'0 0.0
2016-Jul-20 03:33N 37°28' E 025°20'0 0.0
2016-Jul-20 02:34N 37°28' E 025°20'0 0.0
2016-Jul-20 01:34N 37°28' E 025°20'0 0.0
2016-Jul-20 00:34N 37°28' E 025°20'0 0.0
2016-Jul-19 23:34N 37°28' E 025°20'0 0.0
2016-Jul-19 22:34N 37°28' E 025°20'0 0.0
2016-Jul-19 21:34N 37°28' E 025°20'0 0.0
2016-Jul-19 20:33N 37°28' E 025°20'0 0.0
2016-Jul-19 19:34N 37°28' E 025°20'9 9.3
2016-Jul-19 18:33N 37°32' E 025°09'1716.1
2016-Jul-19 17:29N 37°43' E 024°52'3314.5
2016-Jul-19 15:13N 37°58' E 024°15'1218.0
2016-Jul-19 14:33N 38°01' E 024°01'0 0.0
2016-Jul-19 09:32N 38°01' E 024°01'1919.2
2016-Jul-19 08:33N 37°55' E 024°23'5213.0
2016-Jul-19 04:33N 37°28' E 025°20'0 0.0
2016-Jul-19 03:33N 37°28' E 025°20'0 0.0
2016-Jul-19 02:33N 37°28' E 025°20'0 0.0
2016-Jul-19 01:33N 37°28' E 025°20'0 0.0
2016-Jul-19 00:33N 37°28' E 025°20'0 0.0
2016-Jul-18 23:33N 37°28' E 025°20'0 0.0
2016-Jul-18 22:33N 37°28' E 025°20'0 0.0
2016-Jul-18 21:33N 37°28' E 025°20'0 0.0
2016-Jul-18 20:33N 37°28' E 025°20'0 0.0
2016-Jul-18 19:34N 37°28' E 025°20'9 9.2
2016-Jul-18 18:33N 37°32' E 025°09'1514.9
2016-Jul-18 17:33N 37°42' E 024°55'3414.8
2016-Jul-18 15:14N 37°57' E 024°16'12 2.1
2016-Jul-18 09:34N 38°01' E 024°02'1919.4
2016-Jul-18 08:34N 37°54' E 024°25'2511.3
2016-Jul-18 06:21N 37°43' E 024°53'1518.7
2016-Jul-18 05:34N 37°33' E 025°07'1111.3
2016-Jul-18 04:33N 37°28' E 025°20'0 0.0
2016-Jul-18 03:33N 37°28' E 025°20'0 0.0
2016-Jul-18 02:33N 37°28' E 025°20'0 0.0
2016-Jul-18 01:33N 37°28' E 025°20'0 0.0
2016-Jul-18 00:33N 37°28' E 025°20'2 1.8
2016-Jul-17 23:34N 37°28' E 025°17'1514.9
2016-Jul-17 22:33N 37°35' E 025°01'2019.6
2016-Jul-17 21:33N 37°46' E 024°40'2019.7
2016-Jul-17 20:33N 37°55' E 024°18'1514.7
2016-Jul-17 19:33N 38°01' E 024°01'7 6.6
2016-Jul-17 18:33N 37°60' E 024°09'1919.5
2016-Jul-17 17:33N 37°54' E 024°32'8 6.7
2016-Jul-17 16:18N 37°52' E 024°43'1919.6
2016-Jul-17 15:20N 37°56' E 024°20'1519.3
2016-Jul-17 14:33N 38°01' E 024°02'2 1.5
2016-Jul-17 13:33N 38°01' E 024°04'1919.4
2016-Jul-17 12:34N 37°55' E 024°27'2914.1
2016-Jul-17 10:31N 37°39' E 024°57'1212.4
2016-Jul-17 09:33N 37°32' E 025°09'9 9.2
2016-Jul-17 08:34N 37°28' E 025°20'0 0.0
2016-Jul-17 07:34N 37°28' E 025°20'0 0.0
2016-Jul-17 06:34N 37°28' E 025°20'0 0.0
2016-Jul-17 04:34N 37°28' E 025°20'0 0.0
2016-Jul-17 03:34N 37°28' E 025°20'0 0.0
2016-Jul-17 02:34N 37°28' E 025°20'0 0.0
2016-Jul-17 01:34N 37°28' E 025°20'0 0.0
2016-Jul-17 00:33N 37°28' E 025°20'0 0.0
2016-Jul-16 23:34N 37°28' E 025°20'0 0.0
2016-Jul-16 22:34N 37°28' E 025°20'0 0.0
2016-Jul-16 21:33N 37°28' E 025°20'0 0.0
2016-Jul-16 20:34N 37°28' E 025°20'0 0.0
2016-Jul-16 19:34N 37°28' E 025°20'9 9.2
2016-Jul-16 18:33N 37°32' E 025°09'1414.2
2016-Jul-16 17:33N 37°41' E 024°55'1511.7
2016-Jul-16 16:18N 37°52' E 024°43'1520.0
2016-Jul-16 15:33N 37°55' E 024°24'17 8.7
2016-Jul-16 13:33N 38°01' E 024°04'1919.1
2016-Jul-16 12:33N 37°55' E 024°27'1411.6
2016-Jul-16 11:20N 37°52' E 024°44'1519.5
2016-Jul-16 10:33N 37°40' E 024°56'1414.1
2016-Jul-16 09:34N 37°31' E 025°10'7 6.8
2016-Jul-16 08:33N 37°28' E 025°18'1312.8
2016-Jul-16 07:33N 37°35' E 025°04'4916.3
2016-Jul-16 04:34N 37°59' E 024°10'8 7.2
2016-Jul-16 03:27N 38°01' E 024°01'0 0.0
2016-Jul-16 02:33N 38°01' E 024°01'0 0.0
2016-Jul-16 01:33N 38°01' E 024°01'0 0.0
2016-Jul-16 00:33N 38°01' E 024°01'5 4.9
2016-Jul-15 23:33N 37°60' E 024°06'2019.5
2016-Jul-15 22:33N 37°49' E 024°27'  

Dump ship's entire track history